createdAt,value
2022-11-28T00:00:57.394Z,7.57
2022-11-28T00:03:25.683Z,7.17
2022-11-28T00:05:53.913Z,6.73
2022-11-28T00:08:21.563Z,7.40
2022-11-28T00:10:49.120Z,8.00
2022-11-28T00:13:18.163Z,7.33
2022-11-28T00:15:45.697Z,7.30
2022-11-28T00:18:13.220Z,7.30
2022-11-28T00:20:40.754Z,7.67
2022-11-28T00:23:08.266Z,8.30
2022-11-28T00:25:35.774Z,7.90
2022-11-28T00:28:03.439Z,6.97
2022-11-28T00:30:32.275Z,6.63
2022-11-28T00:32:59.825Z,7.50
2022-11-28T00:35:27.404Z,7.87
2022-11-28T00:37:54.913Z,7.47
2022-11-28T00:40:23.490Z,6.50
2022-11-28T00:42:51.016Z,7.63
2022-11-28T00:45:18.563Z,7.03
2022-11-28T00:47:49.243Z,7.90
2022-11-28T00:50:16.876Z,6.63
2022-11-28T00:52:44.599Z,7.10
2022-11-28T00:55:12.111Z,7.47
2022-11-28T00:57:39.627Z,6.63
2022-11-28T01:00:10.292Z,5.53
2022-11-28T01:02:37.869Z,5.87
2022-11-28T01:05:08.168Z,5.30
2022-11-28T01:07:35.783Z,6.20
2022-11-28T01:10:03.473Z,5.80
2022-11-28T01:12:31.022Z,6.00
2022-11-28T01:14:59.500Z,7.37
2022-11-28T01:17:27.034Z,6.90
2022-11-28T01:19:54.570Z,7.43
2022-11-28T01:22:23.494Z,6.87
2022-11-28T01:24:51.119Z,7.63
2022-11-28T01:27:18.719Z,7.57
2022-11-28T01:29:46.239Z,8.27
2022-11-28T01:32:13.982Z,7.77
2022-11-28T01:34:41.745Z,7.43
2022-11-28T01:37:09.459Z,8.10
2022-11-28T01:39:39.009Z,7.90
2022-11-28T01:42:07.354Z,8.93
2022-11-28T01:45:06.968Z,9.20
2022-11-28T01:47:35.530Z,9.13
2022-11-28T01:50:06.324Z,9.20
2022-11-28T01:52:37.383Z,8.87
2022-11-28T01:55:07.830Z,8.20
2022-11-28T01:57:35.796Z,7.90
2022-11-28T02:00:09.727Z,7.97
2022-11-28T02:02:42.373Z,8.20
2022-11-28T02:05:10.768Z,7.43
2022-11-28T02:07:39.145Z,6.83
2022-11-28T02:10:11.609Z,7.77
2022-11-28T02:12:55.384Z,7.20
2022-11-28T02:15:39.499Z,8.00
2022-11-28T02:18:18.050Z,8.00
2022-11-28T02:21:02.381Z,8.20
2022-11-28T02:23:48.870Z,8.27
2022-11-28T02:26:44.312Z,7.90
2022-11-28T02:29:44.786Z,7.27
2022-11-28T02:32:22.265Z,7.40
2022-11-28T02:34:58.736Z,7.23
2022-11-28T02:37:34.766Z,7.37
2022-11-28T02:40:09.816Z,8.07
2022-11-28T02:42:51.815Z,7.33
2022-11-28T02:45:25.156Z,7.80
2022-11-28T02:48:00.520Z,8.00
2022-11-28T02:50:33.343Z,8.23
2022-11-28T02:53:07.128Z,8.27
2022-11-28T02:55:37.656Z,8.87
2022-11-28T02:58:05.114Z,7.27
2022-11-28T03:00:34.831Z,8.33
2022-11-28T03:03:19.992Z,9.40
2022-11-28T03:05:53.211Z,8.63
2022-11-28T03:08:36.911Z,8.50
2022-11-28T03:11:14.468Z,8.77
2022-11-28T03:13:53.916Z,10.13
2022-11-28T03:16:29.020Z,8.67
2022-11-28T03:19:06.774Z,8.00
2022-11-28T03:21:41.664Z,8.23
2022-11-28T03:24:16.311Z,7.70
2022-11-28T03:26:53.010Z,8.30
2022-11-28T03:29:24.483Z,8.07
2022-11-28T03:31:57.013Z,8.60
2022-11-28T03:34:32.376Z,8.47
2022-11-28T03:37:04.164Z,9.17
2022-11-28T03:39:36.663Z,8.07
2022-11-28T03:42:10.478Z,8.10
2022-11-28T03:44:43.167Z,8.80
2022-11-28T03:47:11.503Z,8.37
2022-11-28T03:49:43.603Z,8.77
2022-11-28T03:52:17.028Z,9.23
2022-11-28T03:54:52.139Z,8.73
2022-11-28T03:57:25.602Z,9.90
2022-11-28T03:59:54.789Z,9.40
2022-11-28T04:02:30.243Z,9.53
2022-11-28T04:05:03.514Z,9.97
2022-11-28T04:07:38.559Z,8.80
2022-11-28T04:10:13.492Z,8.77
2022-11-28T04:12:50.793Z,9.23
2022-11-28T04:15:23.690Z,9.77
2022-11-28T04:17:54.806Z,9.10
2022-11-28T04:20:31.284Z,8.97
2022-11-28T04:23:02.083Z,10.03
2022-11-28T04:25:33.826Z,8.73
2022-11-28T04:28:07.925Z,10.60
2022-11-28T04:30:37.823Z,9.43
2022-11-28T04:33:09.629Z,9.20
2022-11-28T04:35:42.685Z,9.60
2022-11-28T04:38:12.580Z,9.40
2022-11-28T04:40:45.099Z,9.00
2022-11-28T04:43:19.408Z,10.23
2022-11-28T04:45:51.497Z,9.30
2022-11-28T04:48:19.512Z,9.83
2022-11-28T04:50:53.318Z,9.53
2022-11-28T04:53:26.222Z,9.77
2022-11-28T04:55:58.744Z,10.20
2022-11-28T04:58:33.683Z,10.20
2022-11-28T05:01:02.953Z,10.50
2022-11-28T05:03:31.788Z,10.43
2022-11-28T05:06:01.406Z,10.50
2022-11-28T05:08:28.982Z,10.00
2022-11-28T05:10:56.513Z,10.40
2022-11-28T05:13:24.008Z,10.83
2022-11-28T05:15:51.526Z,10.77
2022-11-28T05:18:19.020Z,11.57
2022-11-28T05:20:46.518Z,10.23
2022-11-28T05:23:15.622Z,11.03
2022-11-28T05:25:43.116Z,10.80
2022-11-28T05:28:11.226Z,10.97
2022-11-28T05:30:38.721Z,11.60
2022-11-28T05:33:06.219Z,10.43
2022-11-28T05:35:33.688Z,10.53
2022-11-28T05:38:01.178Z,10.80
2022-11-28T05:40:30.024Z,10.10
2022-11-28T05:42:57.549Z,10.53
2022-11-28T05:45:25.139Z,10.80
2022-11-28T05:47:52.678Z,9.83
2022-11-28T05:50:20.150Z,10.60
2022-11-28T05:52:47.674Z,10.77
2022-11-28T05:55:15.434Z,11.37
2022-11-28T05:57:44.287Z,10.43
2022-11-28T06:00:14.270Z,10.67
2022-11-28T06:02:41.809Z,12.30
2022-11-28T06:05:34.628Z,10.70
2022-11-28T06:07:57.295Z,11.40
2022-11-28T06:10:24.968Z,10.60
2022-11-28T06:12:53.899Z,11.87
2022-11-28T06:15:21.415Z,10.30
2022-11-28T06:17:49.042Z,10.20
2022-11-28T06:20:16.757Z,10.80
2022-11-28T06:22:44.345Z,11.47
2022-11-28T06:25:11.854Z,10.67
2022-11-28T06:27:39.363Z,11.40
2022-11-28T06:30:09.328Z,11.33
2022-11-28T06:32:36.824Z,12.33
2022-11-28T06:35:04.553Z,13.23
2022-11-28T06:37:32.057Z,12.93
2022-11-28T06:39:59.642Z,11.67
2022-11-28T06:42:27.164Z,12.03
2022-11-28T06:44:54.663Z,12.80
2022-11-28T06:47:23.586Z,11.40
2022-11-28T06:49:51.031Z,12.90
2022-11-28T06:52:18.517Z,11.83
2022-11-28T06:54:46.017Z,11.47
2022-11-28T06:57:13.823Z,12.47
2022-11-28T06:59:41.733Z,11.70
2022-11-28T07:02:11.751Z,12.00
2022-11-28T07:04:40.989Z,12.10
2022-11-28T07:07:11.502Z,12.53
2022-11-28T07:09:41.722Z,11.33
2022-11-28T07:12:09.466Z,11.57
2022-11-28T07:14:38.118Z,11.67
2022-11-28T07:17:05.956Z,11.87
2022-11-28T07:19:33.624Z,11.83
2022-11-28T07:22:02.501Z,12.30
2022-11-28T07:24:30.310Z,12.47
2022-11-28T07:26:57.849Z,11.23
2022-11-28T07:29:25.484Z,10.97
2022-11-28T07:31:53.127Z,11.43
2022-11-28T07:34:20.726Z,11.60
2022-11-28T07:36:48.193Z,13.73
2022-11-28T07:39:17.425Z,11.93
2022-11-28T07:41:45.038Z,12.87
2022-11-28T07:44:12.998Z,11.40
2022-11-28T07:46:40.684Z,12.23
2022-11-28T07:49:08.217Z,12.23
2022-11-28T07:51:35.905Z,10.33
2022-11-28T07:54:04.362Z,12.20
2022-11-28T07:57:04.632Z,12.00
2022-11-28T07:59:23.066Z,11.53
2022-11-28T08:01:50.742Z,10.93
2022-11-28T08:04:18.446Z,11.43
2022-11-28T08:06:46.525Z,10.97
2022-11-28T08:09:14.041Z,11.67
2022-11-28T08:11:43.031Z,11.87
2022-11-28T08:14:10.630Z,11.10
2022-11-28T08:16:41.126Z,12.00
2022-11-28T08:19:08.753Z,12.10
2022-11-28T08:21:36.213Z,12.10
2022-11-28T08:24:05.089Z,11.57
2022-11-28T08:26:33.660Z,11.97
2022-11-28T08:29:03.368Z,12.40
2022-11-28T08:31:33.426Z,11.50
2022-11-28T08:34:03.427Z,11.67
2022-11-28T08:36:30.923Z,11.10
2022-11-28T08:39:22.734Z,11.63
2022-11-28T08:41:48.146Z,11.30
2022-11-28T08:44:17.096Z,11.93
2022-11-28T08:46:44.944Z,12.20
2022-11-28T08:49:12.397Z,11.97
2022-11-28T08:51:39.881Z,12.77
2022-11-28T08:54:07.454Z,12.90
2022-11-28T08:56:35.519Z,10.87
2022-11-28T08:59:03.183Z,12.30
2022-11-28T09:01:32.113Z,10.73
2022-11-28T09:03:59.806Z,11.33
2022-11-28T09:06:27.309Z,12.07
2022-11-28T09:08:54.859Z,11.27
2022-11-28T09:11:24.470Z,11.57
2022-11-28T09:13:52.111Z,12.83
2022-11-28T09:16:19.735Z,11.37
2022-11-28T09:18:48.880Z,11.50
2022-11-28T09:21:16.657Z,10.90
2022-11-28T09:23:45.557Z,11.03
2022-11-28T09:26:15.037Z,12.17
2022-11-28T09:28:43.085Z,11.53
2022-11-28T09:31:12.193Z,11.97
2022-11-28T09:33:40.080Z,11.97
2022-11-28T09:36:11.891Z,11.40
2022-11-28T09:38:39.684Z,12.07
2022-11-28T09:41:29.766Z,13.03
2022-11-28T09:44:02.610Z,12.53
2022-11-28T09:46:34.706Z,14.10
2022-11-28T09:49:05.501Z,12.77
2022-11-28T09:51:52.005Z,12.37
2022-11-28T09:54:26.281Z,12.70
2022-11-28T09:56:53.842Z,13.43
2022-11-28T09:59:25.627Z,13.33
2022-11-28T10:02:01.473Z,13.47
2022-11-28T10:04:38.003Z,13.60
2022-11-28T10:07:16.129Z,14.97
2022-11-28T10:09:51.732Z,12.33
2022-11-28T10:12:30.865Z,12.77
2022-11-28T10:15:09.608Z,12.67
2022-11-28T10:17:49.885Z,12.70
2022-11-28T10:20:22.066Z,12.57
2022-11-28T10:22:55.603Z,13.70
2022-11-28T10:25:27.489Z,12.93
2022-11-28T10:27:56.913Z,14.87
2022-11-28T10:30:26.842Z,12.10
2022-11-28T10:32:59.925Z,12.67
2022-11-28T10:35:36.658Z,13.13
2022-11-28T10:38:11.301Z,13.23
2022-11-28T10:40:45.772Z,14.43
2022-11-28T10:43:21.181Z,13.67
2022-11-28T10:45:58.682Z,13.57
2022-11-28T10:48:39.900Z,12.67
2022-11-28T10:51:19.726Z,12.87
2022-11-28T10:53:57.132Z,14.87
2022-11-28T10:56:35.699Z,14.37
2022-11-28T10:59:12.546Z,14.20
2022-11-28T11:01:44.739Z,12.57
2022-11-28T11:04:20.059Z,13.00
2022-11-28T11:07:10.164Z,13.97
2022-11-28T11:09:44.180Z,13.33
2022-11-28T11:12:19.353Z,13.97
2022-11-28T11:14:47.028Z,13.47
2022-11-28T11:17:30.041Z,13.13
2022-11-28T11:20:01.016Z,13.37
2022-11-28T11:22:31.978Z,12.37
2022-11-28T11:25:13.969Z,12.90
2022-11-28T11:27:49.661Z,12.90
2022-11-28T11:30:19.516Z,12.07
2022-11-28T11:32:51.387Z,13.03
2022-11-28T11:35:23.300Z,13.03
2022-11-28T11:37:50.850Z,13.17
2022-11-28T11:40:25.775Z,14.03
2022-11-28T11:42:55.619Z,13.97
2022-11-28T11:45:29.594Z,12.37
2022-11-28T11:47:57.681Z,13.00
2022-11-28T11:50:26.729Z,12.27
2022-11-28T11:53:06.607Z,12.73
2022-11-28T11:55:44.124Z,13.50
2022-11-28T11:58:14.890Z,11.63
2022-11-28T12:00:44.004Z,12.43
2022-11-28T12:03:21.428Z,11.57
2022-11-28T12:08:47.586Z,11.43
2022-11-28T12:11:20.813Z,12.17
2022-11-28T12:13:48.353Z,12.30
2022-11-28T12:16:33.652Z,11.87
2022-11-28T12:19:10.438Z,12.87
2022-11-28T12:21:48.639Z,12.30
2022-11-28T12:24:21.272Z,10.83
2022-11-28T12:27:06.065Z,13.93
2022-11-28T12:29:47.034Z,11.23
2022-11-28T12:32:29.873Z,11.90
2022-11-28T12:35:11.093Z,11.13
2022-11-28T12:38:10.181Z,11.47
2022-11-28T12:40:48.311Z,10.93
2022-11-28T12:43:31.680Z,11.60
2022-11-28T12:46:07.771Z,10.63
2022-11-28T12:48:53.469Z,11.53
2022-11-28T12:51:34.037Z,11.20
2022-11-28T12:54:16.066Z,11.00
2022-11-28T12:56:52.920Z,10.60
2022-11-28T12:59:28.133Z,11.83
2022-11-28T13:02:08.228Z,11.20
2022-11-28T13:04:57.767Z,10.00
2022-11-28T13:07:39.677Z,10.20
2022-11-28T13:10:18.356Z,11.03
2022-11-28T13:12:55.961Z,10.57
2022-11-28T13:15:42.297Z,10.87
2022-11-28T13:18:24.664Z,9.27
2022-11-28T13:20:56.674Z,9.93
2022-11-28T13:23:29.518Z,10.20
2022-11-28T13:26:05.623Z,10.03
2022-11-28T13:28:37.357Z,10.43
2022-11-28T13:31:14.044Z,11.40
2022-11-28T13:33:50.961Z,10.77
2022-11-28T13:39:24.122Z,10.13
2022-11-28T13:42:52.293Z,9.47
2022-11-28T13:44:58.826Z,8.93
2022-11-28T13:47:31.532Z,9.07
2022-11-28T13:50:33.825Z,10.43
2022-11-28T13:53:02.697Z,9.80
2022-11-28T13:55:44.697Z,10.03
2022-11-28T13:58:18.570Z,10.63
2022-11-28T14:01:02.497Z,10.07
2022-11-28T14:03:32.762Z,10.77
2022-11-28T14:06:03.244Z,10.47
2022-11-28T14:08:35.193Z,10.63
2022-11-28T14:11:28.136Z,11.07
2022-11-28T14:14:13.223Z,10.07
2022-11-28T14:16:56.867Z,10.63
2022-11-28T14:19:38.130Z,10.27
2022-11-28T14:22:20.768Z,10.03
2022-11-28T14:24:58.434Z,10.50
2022-11-28T14:27:30.570Z,10.30
2022-11-28T14:30:00.521Z,10.17
2022-11-28T14:32:33.965Z,9.73
2022-11-28T14:35:04.585Z,9.50
2022-11-28T14:37:50.641Z,9.67
2022-11-28T14:41:08.923Z,10.50
2022-11-28T14:43:38.666Z,11.10
2022-11-28T14:46:27.324Z,9.67
2022-11-28T14:49:31.653Z,9.77
2022-11-28T14:52:41.628Z,10.10
2022-11-28T14:55:22.861Z,10.30
2022-11-28T14:57:59.063Z,10.50
2022-11-28T15:00:29.526Z,10.50
2022-11-28T15:03:24.435Z,10.23
2022-11-28T15:05:53.384Z,9.97
2022-11-28T15:08:33.672Z,10.63
2022-11-28T15:11:16.269Z,12.43
2022-11-28T15:14:02.176Z,10.43
2022-11-28T15:16:31.635Z,10.70
2022-11-28T15:19:05.977Z,9.90
2022-11-28T15:21:44.709Z,11.40
2022-11-28T15:24:24.361Z,12.80
2022-11-28T15:26:57.145Z,11.30
2022-11-28T15:29:27.565Z,12.07
2022-11-28T15:31:57.773Z,12.40
2022-11-28T15:34:28.074Z,11.73
2022-11-28T15:36:58.568Z,11.23
2022-11-28T15:39:31.412Z,11.53
2022-11-28T15:42:01.450Z,10.57
2022-11-28T15:44:29.390Z,11.37
2022-11-28T15:46:57.248Z,11.50
2022-11-28T15:49:27.273Z,12.30
2022-11-28T15:51:59.571Z,11.37
2022-11-28T15:54:34.255Z,11.63
2022-11-28T15:57:02.345Z,10.80
2022-11-28T15:59:30.530Z,10.77
2022-11-28T16:02:02.018Z,12.37
2022-11-28T16:04:31.365Z,10.87
2022-11-28T16:07:01.961Z,10.70
2022-11-28T16:09:34.864Z,10.43
2022-11-28T16:12:03.887Z,10.03
2022-11-28T16:14:33.794Z,11.27
2022-11-28T16:17:03.116Z,11.23
2022-11-28T16:19:33.000Z,11.70
2022-11-28T16:22:02.949Z,12.83
2022-11-28T16:24:38.552Z,12.37
2022-11-28T16:27:07.364Z,11.00
2022-11-28T16:29:37.342Z,10.30
2022-11-28T16:32:09.510Z,11.13
2022-11-28T16:34:47.943Z,11.53
2022-11-28T16:37:21.353Z,12.27
2022-11-28T16:40:00.802Z,10.40
2022-11-28T16:42:29.037Z,10.53
2022-11-28T16:44:56.649Z,10.07
2022-11-28T16:47:27.444Z,10.43
2022-11-28T16:50:19.242Z,10.90
2022-11-28T16:52:49.442Z,10.43
2022-11-28T16:55:41.276Z,9.77
2022-11-28T16:58:14.470Z,10.27
2022-11-28T17:00:45.081Z,12.03
2022-11-28T17:03:41.732Z,11.23
2022-11-28T17:06:16.413Z,9.70
2022-11-28T17:08:44.018Z,11.20
2022-11-28T17:11:15.012Z,11.00
2022-11-28T17:13:42.512Z,11.23
2022-11-28T17:16:16.930Z,10.70
2022-11-28T17:18:44.837Z,12.17
2022-11-28T17:21:14.174Z,10.13
2022-11-28T17:23:42.198Z,11.93
2022-11-28T17:26:10.229Z,12.10
2022-11-28T17:28:39.773Z,13.27
2022-11-28T17:31:07.777Z,11.87
2022-11-28T17:33:37.519Z,11.93
2022-11-28T17:36:10.798Z,13.03
2022-11-28T17:38:38.385Z,13.60
2022-11-28T17:41:06.447Z,12.60
2022-11-28T17:43:38.912Z,13.90
2022-11-28T17:46:08.276Z,13.17
2022-11-28T17:48:36.027Z,12.80
2022-11-28T17:51:04.018Z,12.87
2022-11-28T17:53:31.684Z,12.13
2022-11-28T17:55:59.895Z,12.00
2022-11-28T17:58:27.565Z,14.67
2022-11-28T18:01:00.515Z,11.87
2022-11-28T18:03:29.931Z,13.37
2022-11-28T18:05:57.436Z,13.23
2022-11-28T18:08:24.952Z,14.00
2022-11-28T18:11:03.436Z,12.80
2022-11-28T18:13:30.937Z,12.27
2022-11-28T18:15:58.981Z,11.57
2022-11-28T18:18:26.534Z,12.70
2022-11-28T18:20:55.514Z,11.60
2022-11-28T18:23:23.018Z,13.23
2022-11-28T18:25:50.497Z,12.63
2022-11-28T18:28:19.173Z,12.13
2022-11-28T18:30:47.912Z,13.03
2022-11-28T18:33:16.716Z,12.07
2022-11-28T18:35:44.308Z,12.10
2022-11-28T18:38:13.190Z,11.93
2022-11-28T18:40:40.864Z,11.97
2022-11-28T18:43:08.420Z,10.50
2022-11-28T18:45:36.144Z,11.97
2022-11-28T18:48:03.869Z,10.50
2022-11-28T18:50:31.384Z,11.93
2022-11-28T18:52:58.890Z,11.53
2022-11-28T18:55:27.729Z,11.53
2022-11-28T18:57:55.362Z,11.63
2022-11-28T19:00:23.561Z,12.13
2022-11-28T19:02:52.065Z,11.13
2022-11-28T19:05:19.654Z,11.27
2022-11-28T19:07:47.227Z,11.50
2022-11-28T19:10:14.844Z,11.43
2022-11-28T19:12:43.810Z,11.87
2022-11-28T19:15:11.946Z,11.87
2022-11-28T19:17:39.451Z,10.67
2022-11-28T19:20:09.692Z,13.57
2022-11-28T19:22:37.411Z,11.73
2022-11-28T19:25:05.721Z,10.27
2022-11-28T19:27:33.273Z,10.37
2022-11-28T19:30:02.134Z,11.50
2022-11-28T19:32:29.741Z,11.57
2022-11-28T19:34:57.204Z,11.33
2022-11-28T19:37:24.903Z,11.40
2022-11-28T19:39:52.364Z,11.17
2022-11-28T19:42:19.984Z,10.53
2022-11-28T19:44:47.521Z,11.10
2022-11-28T19:47:17.000Z,11.23
2022-11-28T19:49:44.631Z,11.37
2022-11-28T19:52:12.260Z,11.50
2022-11-28T19:54:39.837Z,11.87
2022-11-28T19:57:10.318Z,12.23
2022-11-28T19:59:37.908Z,12.63
2022-11-28T20:02:05.962Z,11.23
2022-11-28T20:04:34.873Z,11.40
2022-11-28T20:07:02.384Z,13.03
2022-11-28T20:09:30.096Z,13.07
2022-11-28T20:11:57.651Z,11.87
2022-11-28T20:14:25.762Z,12.70
2022-11-28T20:16:53.352Z,12.17
2022-11-28T20:19:20.951Z,12.50
2022-11-28T20:21:49.809Z,12.33
2022-11-28T20:24:17.382Z,11.53
2022-11-28T20:26:45.084Z,12.47
2022-11-28T20:29:15.298Z,11.87
2022-11-28T20:31:45.364Z,10.97
2022-11-28T20:34:14.342Z,11.00
2022-11-28T20:36:42.386Z,11.00
2022-11-28T20:39:11.953Z,10.70
2022-11-28T20:41:39.529Z,11.47
2022-11-28T20:44:07.409Z,11.23
2022-11-28T20:46:35.537Z,11.50
2022-11-28T20:49:06.059Z,10.67
2022-11-28T20:51:35.632Z,10.60
2022-11-28T20:54:04.993Z,11.73
2022-11-28T20:57:05.086Z,12.10
2022-11-28T20:59:26.654Z,12.67
2022-11-28T21:01:54.395Z,11.17
2022-11-28T21:04:21.930Z,11.60
2022-11-28T21:06:49.933Z,11.10
2022-11-28T21:09:20.156Z,11.90
2022-11-28T21:11:58.480Z,11.73
2022-11-28T21:14:27.215Z,11.80
2022-11-28T21:16:55.793Z,11.43
2022-11-28T21:19:23.578Z,12.03
2022-11-28T21:21:51.276Z,12.03
2022-11-28T21:24:18.824Z,12.23
2022-11-28T21:26:51.276Z,12.10
2022-11-28T21:29:22.091Z,10.93
2022-11-28T21:31:49.716Z,10.33
2022-11-28T21:34:19.021Z,11.50
2022-11-28T21:36:46.961Z,11.47
2022-11-28T21:39:16.271Z,10.80
2022-11-28T21:41:44.079Z,10.87
2022-11-28T21:44:11.663Z,10.73
2022-11-28T21:46:40.569Z,10.90
2022-11-28T21:49:08.101Z,10.20
2022-11-28T21:51:35.632Z,10.93
2022-11-28T21:54:03.111Z,11.30
2022-11-28T21:56:30.675Z,11.17
2022-11-28T21:58:58.212Z,10.83
2022-11-28T22:01:25.820Z,11.50
2022-11-28T22:04:00.648Z,12.83
2022-11-28T22:06:30.309Z,11.57
2022-11-28T22:08:57.957Z,10.93
2022-11-28T22:11:25.979Z,11.87
2022-11-28T22:13:53.710Z,12.10
2022-11-28T22:16:23.170Z,10.63
2022-11-28T22:18:52.599Z,11.20
2022-11-28T22:21:50.505Z,12.00
2022-11-28T22:24:09.725Z,11.73
2022-11-28T22:26:37.454Z,11.10
2022-11-28T22:29:05.119Z,10.50
2022-11-28T22:31:32.807Z,10.80
2022-11-28T22:34:00.782Z,11.40
2022-11-28T22:36:31.075Z,11.03
2022-11-28T22:38:59.311Z,10.90
2022-11-28T22:41:29.728Z,10.67
2022-11-28T22:43:59.359Z,10.83
2022-11-28T22:46:27.108Z,12.00
2022-11-28T22:48:54.638Z,10.50
2022-11-28T22:51:24.213Z,12.20
2022-11-28T22:53:55.288Z,12.47
2022-11-28T22:56:23.180Z,12.53
2022-11-28T22:58:50.936Z,10.97
2022-11-28T23:01:20.836Z,11.17
2022-11-28T23:03:48.659Z,11.17
2022-11-28T23:06:17.737Z,11.43
2022-11-28T23:08:45.589Z,11.13
2022-11-28T23:11:16.332Z,11.70
2022-11-28T23:13:44.916Z,11.90
2022-11-28T23:16:14.384Z,11.17
2022-11-28T23:18:42.968Z,10.43
2022-11-28T23:21:11.349Z,10.87
2022-11-28T23:23:39.681Z,12.43
2022-11-28T23:26:10.281Z,10.83
2022-11-28T23:28:39.852Z,11.47
2022-11-28T23:31:08.780Z,10.77
2022-11-28T23:33:36.726Z,10.77
2022-11-28T23:36:15.481Z,10.83
2022-11-28T23:38:43.341Z,12.80
2022-11-28T23:41:11.565Z,10.23
2022-11-28T23:43:41.005Z,10.30
2022-11-28T23:46:10.240Z,10.47
2022-11-28T23:48:38.474Z,10.10
2022-11-28T23:51:07.161Z,10.00
2022-11-28T23:53:35.053Z,9.73
2022-11-28T23:56:04.258Z,10.27
2022-11-28T23:58:31.781Z,9.67
